sensor_id;sensor_type;location;lat;lon;timestamp;pressure;altitude;pressure_sealevel;temperature;humidity
36304;BME280;22335;49.800;8.596;2023-05-08T00:03:56;100791.38;;;21.76;59.12
36304;BME280;22335;49.800;8.596;2023-05-08T00:10:40;100788.28;;;21.66;58.94
36304;BME280;22335;49.800;8.596;2023-05-08T00:17:23;100807.84;;;21.81;58.66
36304;BME280;22335;49.800;8.596;2023-05-08T00:24:08;100801.69;;;21.88;58.59
36304;BME280;22335;49.800;8.596;2023-05-08T00:30:52;100800.50;;;21.89;58.52
36304;BME280;22335;49.800;8.596;2023-05-08T00:37:35;100799.09;;;21.95;58.13
36304;BME280;22335;49.800;8.596;2023-05-08T00:44:22;100803.41;;;21.93;58.37
36304;BME280;22335;49.800;8.596;2023-05-08T00:51:07;100801.78;;;21.92;58.37
36304;BME280;22335;49.800;8.596;2023-05-08T00:57:51;100817.13;;;21.85;58.58
36304;BME280;22335;49.800;8.596;2023-05-08T01:04:37;100806.94;;;21.77;58.63
36304;BME280;22335;49.800;8.596;2023-05-08T01:11:22;100810.16;;;21.79;57.75
36304;BME280;22335;49.800;8.596;2023-05-08T01:18:14;100818.34;;;21.60;58.55
36304;BME280;22335;49.800;8.596;2023-05-08T01:25:21;100762.59;;;21.07;58.67
36304;BME280;22335;49.800;8.596;2023-05-08T01:32:25;100823.00;;;21.44;58.67
36304;BME280;22335;49.800;8.596;2023-05-08T01:39:30;100818.56;;;21.30;58.84
36304;BME280;22335;49.800;8.596;2023-05-08T01:46:26;100821.34;;;21.30;58.86
36304;BME280;22335;49.800;8.596;2023-05-08T01:53:19;100821.34;;;21.30;59.19
36304;BME280;22335;49.800;8.596;2023-05-08T02:00:06;100822.28;;;21.34;59.04
36304;BME280;22335;49.800;8.596;2023-05-08T02:06:50;100827.19;;;21.50;58.04
36304;BME280;22335;49.800;8.596;2023-05-08T02:13:37;100837.50;;;21.37;58.65
36304;BME280;22335;49.800;8.596;2023-05-08T02:20:21;100835.53;;;21.37;58.67
36304;BME280;22335;49.800;8.596;2023-05-08T02:27:05;100838.19;;;21.34;58.75
36304;BME280;22335;49.800;8.596;2023-05-08T02:33:53;100842.47;;;21.31;58.92
36304;BME280;22335;49.800;8.596;2023-05-08T02:40:43;100841.88;;;21.26;59.20
36304;BME280;22335;49.800;8.596;2023-05-08T03:02:36;100845.69;;;21.21;59.24
36304;BME280;22335;49.800;8.596;2023-05-08T03:09:23;100840.13;;;21.21;59.05
36304;BME280;22335;49.800;8.596;2023-05-08T03:16:14;100832.72;;;21.13;58.90
36304;BME280;22335;49.800;8.596;2023-05-08T03:23:01;100775.09;;;20.77;58.75
36304;BME280;22335;49.800;8.596;2023-05-08T03:29:45;100831.66;;;21.05;58.82
36304;BME280;22335;49.800;8.596;2023-05-08T03:36:31;100843.25;;;21.07;58.61
36304;BME280;22335;49.800;8.596;2023-05-08T03:43:17;100835.84;;;21.11;58.29
36304;BME280;22335;49.800;8.596;2023-05-08T03:50:03;100844.66;;;21.13;57.89
36304;BME280;22335;49.800;8.596;2023-05-08T03:56:48;100857.28;;;21.11;57.68
36304;BME280;22335;49.800;8.596;2023-05-08T04:03:45;100839.41;;;21.00;57.90
36304;BME280;22335;49.800;8.596;2023-05-08T04:10:41;100848.00;;;20.94;57.67
36304;BME280;22335;49.800;8.596;2023-05-08T04:17:33;100815.41;;;20.70;57.45
36304;BME280;22335;49.800;8.596;2023-05-08T04:24:23;100795.66;;;20.51;57.72
36304;BME280;22335;49.800;8.596;2023-05-08T04:31:08;100868.50;;;21.02;57.41
36304;BME280;22335;49.800;8.596;2023-05-08T04:37:52;100883.38;;;21.06;57.25
36304;BME280;22335;49.800;8.596;2023-05-08T04:44:37;100876.97;;;21.06;57.03
36304;BME280;22335;49.800;8.596;2023-05-08T04:51:21;100890.88;;;20.93;57.13
36304;BME280;22335;49.800;8.596;2023-05-08T04:58:05;100891.66;;;20.82;57.36
36304;BME280;22335;49.800;8.596;2023-05-08T05:04:50;100888.91;;;20.61;57.42
36304;BME280;22335;49.800;8.596;2023-05-08T05:11:34;100906.88;;;20.42;57.75
36304;BME280;22335;49.800;8.596;2023-05-08T05:18:17;100903.56;;;20.28;57.70
36304;BME280;22335;49.800;8.596;2023-05-08T05:25:04;100896.00;;;20.16;57.94
36304;BME280;22335;49.800;8.596;2023-05-08T05:31:48;100907.09;;;20.16;58.31
36304;BME280;22335;49.800;8.596;2023-05-08T05:38:32;100909.88;;;20.16;58.13
36304;BME280;22335;49.800;8.596;2023-05-08T05:45:17;100913.72;;;20.03;58.36
36304;BME280;22335;49.800;8.596;2023-05-08T05:52:01;100922.41;;;20.01;58.56
36304;BME280;22335;49.800;8.596;2023-05-08T05:58:45;100921.41;;;19.97;58.39
36304;BME280;22335;49.800;8.596;2023-05-08T06:05:31;100935.78;;;19.99;58.19
36304;BME280;22335;49.800;8.596;2023-05-08T06:12:15;100928.81;;;19.93;58.41
36304;BME280;22335;49.800;8.596;2023-05-08T06:18:59;100932.34;;;20.02;58.16
36304;BME280;22335;49.800;8.596;2023-05-08T06:25:44;100928.41;;;20.03;58.13
36304;BME280;22335;49.800;8.596;2023-05-08T06:32:27;100945.06;;;20.03;58.04
36304;BME280;22335;49.800;8.596;2023-05-08T06:39:11;100949.19;;;19.97;58.03
36304;BME280;22335;49.800;8.596;2023-05-08T06:45:55;100946.75;;;19.96;57.97
36304;BME280;22335;49.800;8.596;2023-05-08T06:52:39;100952.84;;;19.89;58.16
36304;BME280;22335;49.800;8.596;2023-05-08T06:59:22;100964.09;;;19.93;57.68
36304;BME280;22335;49.800;8.596;2023-05-08T07:06:07;100950.84;;;19.98;57.81
36304;BME280;22335;49.800;8.596;2023-05-08T07:12:51;100963.91;;;19.98;57.74
36304;BME280;22335;49.800;8.596;2023-05-08T07:19:35;100959.34;;;19.93;57.65
36304;BME280;22335;49.800;8.596;2023-05-08T07:26:20;100959.25;;;19.81;57.98
36304;BME280;22335;49.800;8.596;2023-05-08T07:33:03;100968.06;;;19.83;58.21
36304;BME280;22335;49.800;8.596;2023-05-08T07:39:47;100974.13;;;19.85;58.37
36304;BME280;22335;49.800;8.596;2023-05-08T07:46:32;100966.09;;;19.84;57.96
36304;BME280;22335;49.800;8.596;2023-05-08T07:53:15;100974.97;;;19.77;58.15
36304;BME280;22335;49.800;8.596;2023-05-08T08:00:00;100966.91;;;19.84;58.59
36304;BME280;22335;49.800;8.596;2023-05-08T08:06:55;100964.91;;;19.93;58.44
36304;BME280;22335;49.800;8.596;2023-05-08T08:13:38;100981.66;;;20.06;58.32
36304;BME280;22335;49.800;8.596;2023-05-08T08:20:21;100979.44;;;20.20;58.50
36304;BME280;22335;49.800;8.596;2023-05-08T08:27:06;100977.28;;;20.25;58.32
36304;BME280;22335;49.800;8.596;2023-05-08T08:33:49;100977.06;;;20.31;58.37
36304;BME280;22335;49.800;8.596;2023-05-08T08:40:37;100967.94;;;20.30;58.95
36304;BME280;22335;49.800;8.596;2023-05-08T08:47:27;100945.56;;;20.26;58.77
36304;BME280;22335;49.800;8.596;2023-05-08T08:54:12;100976.69;;;20.62;58.17
36304;BME280;22335;49.800;8.596;2023-05-08T09:00:57;100976.56;;;20.79;57.88
36304;BME280;22335;49.800;8.596;2023-05-08T09:07:43;100978.09;;;20.89;57.59
36304;BME280;22335;49.800;8.596;2023-05-08T09:14:26;100987.38;;;20.93;56.88
36304;BME280;22335;49.800;8.596;2023-05-08T09:21:10;100998.91;;;21.04;57.28
36304;BME280;22335;49.800;8.596;2023-05-08T09:28:14;100991.22;;;21.01;57.35
36304;BME280;22335;49.800;8.596;2023-05-08T09:34:59;100996.66;;;20.97;57.59
36304;BME280;22335;49.800;8.596;2023-05-08T09:41:55;100993.09;;;20.76;57.82
36304;BME280;22335;49.800;8.596;2023-05-08T09:48:41;101005.34;;;20.75;57.84
36304;BME280;22335;49.800;8.596;2023-05-08T09:55:25;101008.13;;;20.75;57.50
36304;BME280;22335;49.800;8.596;2023-05-08T10:02:10;101017.50;;;20.70;58.08
36304;BME280;22335;49.800;8.596;2023-05-08T10:09:08;100996.81;;;20.59;58.32
36304;BME280;22335;49.800;8.596;2023-05-08T10:15:53;101013.63;;;20.83;57.96
36304;BME280;22335;49.800;8.596;2023-05-08T10:22:41;101012.00;;;20.82;58.13
36304;BME280;22335;49.800;8.596;2023-05-08T10:29:31;101012.94;;;20.86;58.22
36304;BME280;22335;49.800;8.596;2023-05-08T10:36:19;101009.91;;;21.00;58.12
36304;BME280;22335;49.800;8.596;2023-05-08T10:43:05;100996.16;;;21.16;57.79
36304;BME280;22335;49.800;8.596;2023-05-08T10:49:59;100998.53;;;21.38;56.79
36304;BME280;22335;49.800;8.596;2023-05-08T10:56:47;100954.38;;;21.37;56.89
36304;BME280;22335;49.800;8.596;2023-05-08T11:03:32;100992.81;;;21.93;56.30
36304;BME280;22335;49.800;8.596;2023-05-08T11:10:29;100984.91;;;21.95;55.89
36304;BME280;22335;49.800;8.596;2023-05-08T11:17:22;100987.47;;;21.87;56.19
36304;BME280;22335;49.800;8.596;2023-05-08T11:24:09;100979.00;;;21.84;56.21
36304;BME280;22335;49.800;8.596;2023-05-08T11:30:54;100983.19;;;21.78;56.20
36304;BME280;22335;49.800;8.596;2023-05-08T11:37:38;100990.72;;;21.77;56.21
36304;BME280;22335;49.800;8.596;2023-05-08T11:44:21;100987.00;;;21.85;56.33
36304;BME280;22335;49.800;8.596;2023-05-08T11:51:06;100978.03;;;21.92;55.85
36304;BME280;22335;49.800;8.596;2023-05-08T11:57:53;100965.88;;;21.97;56.02
36304;BME280;22335;49.800;8.596;2023-05-08T12:04:44;100974.56;;;22.07;55.94
36304;BME280;22335;49.800;8.596;2023-05-08T12:11:29;100976.22;;;22.21;55.81
36304;BME280;22335;49.800;8.596;2023-05-08T12:18:13;100981.09;;;22.24;55.81
36304;BME280;22335;49.800;8.596;2023-05-08T12:24:58;100981.19;;;22.27;55.64
36304;BME280;22335;49.800;8.596;2023-05-08T12:31:42;100924.00;;;21.93;55.72
36304;BME280;22335;49.800;8.596;2023-05-08T12:38:27;100977.47;;;22.23;55.91
36304;BME280;22335;49.800;8.596;2023-05-08T12:45:17;100970.84;;;22.28;55.90
36304;BME280;22335;49.800;8.596;2023-05-08T12:52:03;100978.84;;;22.29;55.76
36304;BME280;22335;49.800;8.596;2023-05-08T12:58:47;100981.41;;;22.35;55.53
36304;BME280;22335;49.800;8.596;2023-05-08T13:05:33;100969.78;;;22.32;55.71
36304;BME280;22335;49.800;8.596;2023-05-08T13:12:18;100976.72;;;22.39;55.69
36304;BME280;22335;49.800;8.596;2023-05-08T13:19:02;100971.28;;;22.42;55.99
36304;BME280;22335;49.800;8.596;2023-05-08T13:25:45;100958.94;;;22.55;55.68
36304;BME280;22335;49.800;8.596;2023-05-08T13:32:30;100965.44;;;22.47;55.77
36304;BME280;22335;49.800;8.596;2023-05-08T13:39:13;100970.44;;;22.42;56.44
36304;BME280;22335;49.800;8.596;2023-05-08T13:45:57;100967.47;;;22.35;56.73
36304;BME280;22335;49.800;8.596;2023-05-08T13:52:42;100956.53;;;22.29;57.18
36304;BME280;22335;49.800;8.596;2023-05-08T13:59:26;100952.84;;;22.25;57.39
36304;BME280;22335;49.800;8.596;2023-05-08T14:06:11;100948.78;;;22.23;57.50
36304;BME280;22335;49.800;8.596;2023-05-08T14:12:56;100944.00;;;22.11;57.67
36304;BME280;22335;49.800;8.596;2023-05-08T14:19:39;100957.03;;;22.19;57.71
36304;BME280;22335;49.800;8.596;2023-05-08T14:26:23;100947.16;;;22.22;57.26
36304;BME280;22335;49.800;8.596;2023-05-08T14:33:08;100946.38;;;22.21;57.40
36304;BME280;22335;49.800;8.596;2023-05-08T14:39:51;100947.03;;;22.30;57.08
36304;BME280;22335;49.800;8.596;2023-05-08T14:46:36;100933.94;;;22.19;57.16
36304;BME280;22335;49.800;8.596;2023-05-08T14:53:21;100929.78;;;22.00;57.19
36304;BME280;22335;49.800;8.596;2023-05-08T15:00:06;100921.03;;;22.02;57.16
36304;BME280;22335;49.800;8.596;2023-05-08T15:06:50;100925.47;;;22.03;57.04
36304;BME280;22335;49.800;8.596;2023-05-08T15:13:34;100909.88;;;22.14;56.95
36304;BME280;22335;49.800;8.596;2023-05-08T15:20:20;100917.84;;;22.40;56.18
36304;BME280;22335;49.800;8.596;2023-05-08T15:27:03;100908.22;;;22.38;56.07
36304;BME280;22335;49.800;8.596;2023-05-08T15:33:48;100902.84;;;22.45;56.18
36304;BME280;22335;49.800;8.596;2023-05-08T15:40:32;100912.09;;;22.61;55.20
36304;BME280;22335;49.800;8.596;2023-05-08T15:47:15;100914.22;;;22.80;55.38
36304;BME280;22335;49.800;8.596;2023-05-08T15:54:01;100915.56;;;22.86;54.82
36304;BME280;22335;49.800;8.596;2023-05-08T16:00:44;100920.53;;;22.93;55.25
36304;BME280;22335;49.800;8.596;2023-05-08T16:07:28;100922.25;;;22.97;54.63
36304;BME280;22335;49.800;8.596;2023-05-08T16:14:12;100915.06;;;22.96;54.07
36304;BME280;22335;49.800;8.596;2023-05-08T16:20:57;100883.69;;;22.71;54.44
36304;BME280;22335;49.800;8.596;2023-05-08T16:27:40;100918.41;;;23.02;54.36
36304;BME280;22335;49.800;8.596;2023-05-08T16:34:25;100906.25;;;23.10;54.12
36304;BME280;22335;49.800;8.596;2023-05-08T16:41:08;100904.38;;;23.14;53.78
36304;BME280;22335;49.800;8.596;2023-05-08T16:47:53;100898.41;;;23.00;53.54
36304;BME280;22335;49.800;8.596;2023-05-08T16:54:38;100882.56;;;23.04;53.44
36304;BME280;22335;49.800;8.596;2023-05-08T17:01:21;100888.91;;;23.17;53.10
36304;BME280;22335;49.800;8.596;2023-05-08T17:08:04;100896.34;;;23.13;53.11
36304;BME280;22335;49.800;8.596;2023-05-08T17:14:49;100873.69;;;23.14;53.35
36304;BME280;22335;49.800;8.596;2023-05-08T17:21:33;100889.88;;;23.09;53.00
36304;BME280;22335;49.800;8.596;2023-05-08T17:28:16;100886.63;;;23.07;53.28
36304;BME280;22335;49.800;8.596;2023-05-08T17:35:01;100881.50;;;23.09;52.90
36304;BME280;22335;49.800;8.596;2023-05-08T17:41:44;100896.09;;;23.18;53.07
36304;BME280;22335;49.800;8.596;2023-05-08T17:48:28;100906.78;;;23.32;52.64
36304;BME280;22335;49.800;8.596;2023-05-08T17:55:13;100895.63;;;23.32;52.59
36304;BME280;22335;49.800;8.596;2023-05-08T18:01:56;100913.00;;;23.41;52.49
36304;BME280;22335;49.800;8.596;2023-05-08T18:08:40;100905.09;;;23.43;52.71
36304;BME280;22335;49.800;8.596;2023-05-08T18:15:25;100901.41;;;23.39;52.73
36304;BME280;22335;49.800;8.596;2023-05-08T18:22:08;100905.56;;;23.45;52.61
36304;BME280;22335;49.800;8.596;2023-05-08T18:28:52;100911.13;;;23.45;52.56
36304;BME280;22335;49.800;8.596;2023-05-08T18:35:36;100910.13;;;23.53;52.18
36304;BME280;22335;49.800;8.596;2023-05-08T18:42:20;100919.41;;;23.57;52.08
36304;BME280;22335;49.800;8.596;2023-05-08T18:49:03;100915.06;;;23.60;51.97
36304;BME280;22335;49.800;8.596;2023-05-08T18:55:49;100909.94;;;23.62;51.62
36304;BME280;22335;49.800;8.596;2023-05-08T19:02:33;100920.38;;;23.65;51.63
36304;BME280;22335;49.800;8.596;2023-05-08T19:09:16;100931.09;;;23.63;51.73
36304;BME280;22335;49.800;8.596;2023-05-08T19:16:01;100917.13;;;23.63;51.59
36304;BME280;22335;49.800;8.596;2023-05-08T19:22:45;100923.19;;;23.65;51.37
36304;BME280;22335;49.800;8.596;2023-05-08T19:29:28;100917.97;;;23.63;51.56
36304;BME280;22335;49.800;8.596;2023-05-08T19:36:15;100912.28;;;23.60;51.34
36304;BME280;22335;49.800;8.596;2023-05-08T19:42:59;100912.03;;;23.49;51.63
36304;BME280;22335;49.800;8.596;2023-05-08T19:49:43;100909.69;;;23.35;51.64
36304;BME280;22335;49.800;8.596;2023-05-08T19:56:27;100867.31;;;22.98;51.95
36304;BME280;22335;49.800;8.596;2023-05-08T20:03:11;100914.09;;;23.36;51.58
36304;BME280;22335;49.800;8.596;2023-05-08T20:09:55;100907.34;;;23.37;51.87
36304;BME280;22335;49.800;8.596;2023-05-08T20:16:40;100891.22;;;23.31;51.92
36304;BME280;22335;49.800;8.596;2023-05-08T20:23:23;100926.06;;;23.37;51.94
36304;BME280;22335;49.800;8.596;2023-05-08T20:30:07;100924.00;;;23.34;51.86
36304;BME280;22335;49.800;8.596;2023-05-08T20:36:52;100909.16;;;23.30;51.74
36304;BME280;22335;49.800;8.596;2023-05-08T20:43:38;100917.78;;;23.24;51.86
36304;BME280;22335;49.800;8.596;2023-05-08T20:50:21;100900.16;;;23.20;51.81
36304;BME280;22335;49.800;8.596;2023-05-08T20:57:06;100863.03;;;23.04;51.78
36304;BME280;22335;49.800;8.596;2023-05-08T21:03:49;100871.69;;;23.15;51.66
36304;BME280;22335;49.800;8.596;2023-05-08T21:10:33;100882.06;;;23.30;51.43
36304;BME280;22335;49.800;8.596;2023-05-08T21:17:18;100871.69;;;23.31;51.24
36304;BME280;22335;49.800;8.596;2023-05-08T21:24:02;100874.13;;;23.32;51.52
36304;BME280;22335;49.800;8.596;2023-05-08T21:30:46;100872.50;;;23.31;51.69
36304;BME280;22335;49.800;8.596;2023-05-08T21:37:30;100869.63;;;23.28;51.45
36304;BME280;22335;49.800;8.596;2023-05-08T21:44:14;100873.13;;;23.24;51.81
36304;BME280;22335;49.800;8.596;2023-05-08T21:50:58;100865.94;;;23.23;51.74
36304;BME280;22335;49.800;8.596;2023-05-08T21:57:42;100856.38;;;23.24;51.87
36304;BME280;22335;49.800;8.596;2023-05-08T22:04:26;100858.63;;;23.19;51.77
36304;BME280;22335;49.800;8.596;2023-05-08T22:11:09;100862.69;;;23.21;51.74
36304;BME280;22335;49.800;8.596;2023-05-08T22:17:54;100843.16;;;23.21;51.49
36304;BME280;22335;49.800;8.596;2023-05-08T22:24:37;100844.78;;;23.22;51.43
36304;BME280;22335;49.800;8.596;2023-05-08T22:31:21;100838.38;;;23.22;51.60
36304;BME280;22335;49.800;8.596;2023-05-08T22:38:06;100827.41;;;23.13;51.99
36304;BME280;22335;49.800;8.596;2023-05-08T22:44:50;100819.31;;;23.08;52.00
36304;BME280;22335;49.800;8.596;2023-05-08T22:51:33;100813.66;;;23.05;51.76
36304;BME280;22335;49.800;8.596;2023-05-08T22:58:18;100796.84;;;23.01;51.83
36304;BME280;22335;49.800;8.596;2023-05-08T23:05:02;100798.38;;;22.98;51.89
36304;BME280;22335;49.800;8.596;2023-05-08T23:11:47;100801.94;;;22.83;52.03
36304;BME280;22335;49.800;8.596;2023-05-08T23:18:32;100784.19;;;22.75;52.38
36304;BME280;22335;49.800;8.596;2023-05-08T23:25:15;100791.41;;;22.76;52.47
36304;BME280;22335;49.800;8.596;2023-05-08T23:31:59;100784.91;;;22.72;52.33
36304;BME280;22335;49.800;8.596;2023-05-08T23:38:44;100773.66;;;22.69;52.62
36304;BME280;22335;49.800;8.596;2023-05-08T23:45:28;100731.94;;;22.41;52.77
36304;BME280;22335;49.800;8.596;2023-05-08T23:52:11;100763.53;;;22.76;52.71
36304;BME280;22335;49.800;8.596;2023-05-08T23:58:56;100755.16;;;22.76;52.50
